Bone, Idaho
Current Conditions -  °F | °C
As of 11:53 PM on Sunday 23 Nov 2014 (Local Time) from KIDA Reporting Station
Clear Clear  
Wind Chill: 18°   Ceiling: Unl
Heat Index: 31°   Visibility: 10mi
Dew Point: 25°   Wind: 21mph
Humidity: 79%   Direction: 220°SW
Pressure: 30.04"   Gusts: NA
Location:  43.498°N, 111.73°W
Report Text: KIDA 240653Z AUTO 22018KT 10SM CLR M01/M04 A3004 RMK AO2 SLP193 T10061039 400391044
Loading
Personal Weather Stations






























Interactive Weather Map New forecast layout! Learn more

10-Day Weather Forecast

Advertisements
Track Severe Weather on mobile